Zwolle, Louisiana
Current Conditions -  °F | °C
As of 3:56 PM on Friday 24 Oct 2014 (Local Time) from KAQV Reporting Station
Clear Clear  
Wind Chill: 76°   Ceiling: Unl
Heat Index: 76°   Visibility: 10mi
Dew Point: 46°   Wind: 7mph
Humidity: 35%   Direction: 30°NNE
Pressure: 30.09"   Gusts: NA
Location:  31.63°N, 93.64°W
Report Text: KAQV 242056Z AUTO 03006KT 10SM CLR 24/08 A3009 RMK AO2 SLP190 T02440078 55010
Loading
Personal Weather Stations






























Interactive Weather Map
Tropical Storm Tracking
New forecast layout! Learn more

10-Day Weather Forecast

Advertisements
Track Severe Weather on mobile